createdAt,value
2022-08-19T00:01:41.944Z,15.05
2022-08-19T00:03:43.649Z,14.95
2022-08-19T00:05:45.314Z,14.75
2022-08-19T00:07:47.137Z,15.20
2022-08-19T00:09:48.762Z,14.75
2022-08-19T00:11:53.095Z,14.68
2022-08-19T00:13:57.589Z,14.57
2022-08-19T00:16:00.672Z,15.45
2022-08-19T00:18:02.266Z,14.75
2022-08-19T00:20:04.757Z,14.77
2022-08-19T00:22:06.784Z,15.45
2022-08-19T00:24:10.283Z,14.48
2022-08-19T00:26:12.288Z,15.15
2022-08-19T00:28:13.913Z,14.63
2022-08-19T00:30:15.953Z,15.25
2022-08-19T00:32:17.944Z,14.85
2022-08-19T00:34:22.159Z,15.00
2022-08-19T00:36:23.814Z,13.90
2022-08-19T00:38:35.099Z,14.55
2022-08-19T00:40:39.900Z,14.00
2022-08-19T00:42:41.871Z,14.30
2022-08-19T00:44:44.347Z,14.90
2022-08-19T00:46:57.826Z,14.90
2022-08-19T00:49:03.378Z,13.90
2022-08-19T00:51:06.911Z,15.02
2022-08-19T00:53:08.677Z,14.35
2022-08-19T00:55:12.847Z,14.32
2022-08-19T00:57:18.051Z,14.18
2022-08-19T00:59:56.244Z,14.13
2022-08-19T01:01:44.437Z,15.00
2022-08-19T01:03:57.651Z,15.70
2022-08-19T01:06:01.085Z,14.75
2022-08-19T01:08:05.638Z,14.20
2022-08-19T01:10:11.605Z,13.77
2022-08-19T01:12:13.333Z,14.48
2022-08-19T01:14:16.260Z,14.80
2022-08-19T01:16:21.105Z,14.20
2022-08-19T01:18:24.603Z,14.30
2022-08-19T01:20:26.284Z,13.63
2022-08-19T01:22:37.475Z,13.68
2022-08-19T01:24:42.251Z,13.30
2022-08-19T01:26:51.680Z,13.23
2022-08-19T01:28:59.565Z,13.15
2022-08-19T01:31:07.940Z,13.93
2022-08-19T01:33:09.891Z,13.30
2022-08-19T01:35:12.904Z,13.85
2022-08-19T01:37:15.733Z,13.98
2022-08-19T01:39:29.275Z,13.75
2022-08-19T01:41:31.040Z,14.07
2022-08-19T01:43:33.773Z,13.52
2022-08-19T01:45:37.244Z,13.90
2022-08-19T01:47:39.040Z,13.45
2022-08-19T01:49:40.617Z,13.85
2022-08-19T01:51:42.368Z,12.82
2022-08-19T01:53:44.025Z,14.23
2022-08-19T01:55:46.652Z,13.80
2022-08-19T01:57:59.004Z,14.57
2022-08-19T02:00:01.765Z,14.13
2022-08-19T02:02:09.417Z,14.10
2022-08-19T02:04:11.069Z,15.30
2022-08-19T02:06:13.128Z,14.90
2022-08-19T02:08:14.693Z,14.95
2022-08-19T02:10:20.544Z,13.90
2022-08-19T02:12:22.645Z,14.60
2022-08-19T02:14:24.482Z,14.27
2022-08-19T02:16:26.064Z,14.60
2022-08-19T02:18:27.885Z,14.82
2022-08-19T02:20:29.852Z,15.07
2022-08-19T02:22:31.584Z,15.05
2022-08-19T02:24:33.357Z,15.07
2022-08-19T02:26:35.026Z,15.45
2022-08-19T02:28:37.428Z,15.25
2022-08-19T02:30:39.827Z,17.20
2022-08-19T02:32:44.351Z,17.05
2022-08-19T02:34:48.133Z,16.90
2022-08-19T02:36:51.795Z,18.10
2022-08-19T02:38:55.526Z,18.85
2022-08-19T02:41:03.400Z,18.67
2022-08-19T02:43:08.442Z,19.25
2022-08-19T02:45:10.892Z,18.08
2022-08-19T02:47:14.285Z,19.08
2022-08-19T02:49:17.593Z,18.40
2022-08-19T02:51:27.901Z,18.45
2022-08-19T02:53:30.213Z,18.55
2022-08-19T02:55:31.813Z,19.40
2022-08-19T02:57:48.416Z,20.05
2022-08-19T02:59:50.805Z,18.90
2022-08-19T03:01:52.445Z,18.67
2022-08-19T03:03:56.441Z,19.23
2022-08-19T03:06:10.600Z,18.45
2022-08-19T03:08:13.453Z,18.55
2022-08-19T03:10:15.144Z,19.05
2022-08-19T03:12:16.728Z,18.05
2022-08-19T03:14:19.168Z,18.40
2022-08-19T03:16:24.176Z,17.40
2022-08-19T03:18:25.891Z,17.48
2022-08-19T03:20:29.480Z,18.15
2022-08-19T03:22:31.104Z,18.95
2022-08-19T03:24:36.149Z,18.08
2022-08-19T03:26:43.585Z,17.75
2022-08-19T03:28:51.583Z,17.73
2022-08-19T03:31:02.657Z,18.63
2022-08-19T03:33:05.573Z,18.00
2022-08-19T03:35:07.818Z,19.13
2022-08-19T03:37:13.425Z,18.60
2022-08-19T03:39:15.610Z,18.13
2022-08-19T03:41:21.108Z,18.38
2022-08-19T03:43:22.720Z,17.80
2022-08-19T03:45:25.081Z,18.08
2022-08-19T03:47:26.704Z,17.90
2022-08-19T03:49:31.486Z,17.63
2022-08-19T03:51:36.257Z,18.73
2022-08-19T03:53:37.913Z,17.45
2022-08-19T03:55:42.783Z,17.27
2022-08-19T03:57:46.199Z,17.27
2022-08-19T03:59:47.978Z,18.35
2022-08-19T04:01:49.542Z,18.25
2022-08-19T04:03:51.232Z,17.08
2022-08-19T04:05:52.865Z,16.98
2022-08-19T04:07:55.024Z,17.00
2022-08-19T04:09:56.681Z,18.75
2022-08-19T04:11:58.837Z,18.52
2022-08-19T04:14:01.332Z,18.52
2022-08-19T04:16:07.355Z,18.35
2022-08-19T04:18:11.276Z,19.25
2022-08-19T04:20:13.237Z,18.90
2022-08-19T04:22:14.828Z,19.77
2022-08-19T04:24:17.114Z,18.50
2022-08-19T04:26:21.691Z,18.90
2022-08-19T04:28:24.151Z,19.45
2022-08-19T04:30:25.790Z,20.73
2022-08-19T04:32:27.411Z,19.83
2022-08-19T04:34:30.565Z,19.88
2022-08-19T04:36:36.098Z,19.60
2022-08-19T04:38:37.760Z,18.13
2022-08-19T04:41:10.860Z,19.33
2022-08-19T04:43:14.812Z,19.73
2022-08-19T04:45:17.539Z,19.55
2022-08-19T04:47:19.199Z,18.67
2022-08-19T04:49:41.117Z,18.45
2022-08-19T04:51:45.615Z,19.23
2022-08-19T04:53:47.285Z,18.35
2022-08-19T04:55:48.869Z,18.13
2022-08-19T04:57:51.757Z,18.98
2022-08-19T04:59:57.557Z,18.80
2022-08-19T05:01:59.155Z,19.58
2022-08-19T05:04:02.600Z,18.52
2022-08-19T05:06:08.733Z,19.67
2022-08-19T05:08:10.398Z,19.98
2022-08-19T05:10:15.781Z,20.42
2022-08-19T05:12:18.766Z,20.27
2022-08-19T05:14:22.037Z,20.25
2022-08-19T05:16:25.885Z,21.30
2022-08-19T05:18:45.978Z,19.85
2022-08-19T05:21:06.165Z,20.70
2022-08-19T05:23:09.232Z,20.83
2022-08-19T05:25:20.056Z,22.45
2022-08-19T05:27:21.853Z,21.13
2022-08-19T05:29:26.034Z,21.48
2022-08-19T05:31:33.641Z,21.77
2022-08-19T05:33:35.274Z,21.25
2022-08-19T05:35:38.649Z,20.77
2022-08-19T05:37:43.198Z,20.23
2022-08-19T05:39:47.450Z,20.88
2022-08-19T05:42:01.320Z,20.58
2022-08-19T05:44:10.229Z,20.90
2022-08-19T05:46:19.326Z,20.25
2022-08-19T05:48:29.376Z,21.35
2022-08-19T05:50:31.473Z,21.30
2022-08-19T05:52:33.583Z,20.15
2022-08-19T05:54:38.960Z,20.63
2022-08-19T05:56:41.938Z,19.52
2022-08-19T05:58:46.011Z,20.23
2022-08-19T06:00:47.781Z,19.80
2022-08-19T06:02:49.803Z,19.08
2022-08-19T06:04:51.589Z,19.98
2022-08-19T06:06:54.809Z,20.20
2022-08-19T06:08:56.717Z,19.58
2022-08-19T06:10:58.365Z,20.30
2022-08-19T06:13:00.019Z,20.15
2022-08-19T06:15:07.182Z,19.77
2022-08-19T06:17:09.306Z,19.52
2022-08-19T06:19:17.014Z,19.98
2022-08-19T06:21:23.522Z,19.02
2022-08-19T06:23:25.225Z,19.13
2022-08-19T06:25:30.385Z,19.92
2022-08-19T06:27:33.691Z,20.08
2022-08-19T06:29:36.112Z,20.17
2022-08-19T06:31:39.559Z,19.88
2022-08-19T06:33:43.240Z,21.42
2022-08-19T06:37:51.660Z,19.88
2022-08-19T06:39:53.416Z,19.83
2022-08-19T06:41:59.684Z,19.70
2022-08-19T06:44:01.417Z,20.42
2022-08-19T06:46:05.137Z,19.58
2022-08-19T06:48:08.436Z,19.48
2022-08-19T06:50:10.184Z,17.65
2022-08-19T06:52:13.846Z,19.30
2022-08-19T06:54:19.792Z,17.90
2022-08-19T06:56:35.645Z,19.23
2022-08-19T06:58:37.313Z,17.98
2022-08-19T07:00:39.495Z,17.83
2022-08-19T07:02:49.695Z,17.35
2022-08-19T07:04:59.226Z,17.98
2022-08-19T07:07:19.619Z,18.00
2022-08-19T07:09:22.342Z,18.83
2022-08-19T07:11:24.070Z,17.60
2022-08-19T07:13:26.067Z,16.60
2022-08-19T07:15:28.220Z,16.20
2022-08-19T07:17:31.003Z,16.17
2022-08-19T07:19:34.154Z,16.67
2022-08-19T07:21:37.647Z,16.10
2022-08-19T07:23:39.631Z,14.65
2022-08-19T07:25:41.312Z,15.48
2022-08-19T07:27:54.224Z,14.55
2022-08-19T07:29:57.511Z,13.88
2022-08-19T07:32:00.995Z,14.52
2022-08-19T07:34:02.672Z,13.65
2022-08-19T07:36:11.304Z,12.93
2022-08-19T07:38:12.959Z,12.35
2022-08-19T07:40:14.899Z,12.85
2022-08-19T07:42:17.503Z,11.88
2022-08-19T07:44:21.229Z,12.75
2022-08-19T07:46:22.955Z,12.90
2022-08-19T07:48:29.570Z,12.60
2022-08-19T07:50:31.228Z,12.82
2022-08-19T07:52:33.100Z,12.80
2022-08-19T07:54:37.211Z,12.57
2022-08-19T07:56:39.165Z,12.65
2022-08-19T07:58:44.184Z,12.30
2022-08-19T08:00:48.221Z,12.10
2022-08-19T08:02:49.876Z,11.15
2022-08-19T08:05:11.516Z,11.05
2022-08-19T08:07:31.896Z,10.48
2022-08-19T08:09:39.194Z,10.30
2022-08-19T08:12:02.018Z,11.13
2022-08-19T08:14:08.367Z,11.13
2022-08-19T08:16:32.974Z,9.98
2022-08-19T08:18:42.521Z,9.52
2022-08-19T08:20:44.205Z,10.02
2022-08-19T08:23:06.068Z,10.00
2022-08-19T08:25:17.399Z,9.85
2022-08-19T08:27:20.891Z,10.23
2022-08-19T08:29:34.952Z,10.15
2022-08-19T08:31:37.912Z,9.60
2022-08-19T08:33:39.622Z,9.85
2022-08-19T08:35:44.616Z,8.93
2022-08-19T08:37:49.190Z,9.75
2022-08-19T08:39:52.495Z,9.75
2022-08-19T08:42:02.728Z,9.77
2022-08-19T08:44:44.829Z,10.00
2022-08-19T08:46:52.860Z,10.35
2022-08-19T08:49:01.248Z,9.23
2022-08-19T08:51:06.500Z,9.43
2022-08-19T08:53:29.650Z,9.68
2022-08-19T08:55:37.235Z,9.35
2022-08-19T08:57:55.670Z,9.30
2022-08-19T09:00:01.529Z,9.02
2022-08-19T09:02:03.882Z,8.65
2022-08-19T09:04:08.065Z,8.82
2022-08-19T09:06:52.778Z,9.18
2022-08-19T09:09:33.405Z,9.43
2022-08-19T09:11:42.870Z,9.52
2022-08-19T09:14:03.965Z,10.00
2022-08-19T09:16:14.068Z,9.30
2022-08-19T09:18:19.395Z,8.75
2022-08-19T09:20:24.512Z,9.20
2022-08-19T09:22:28.356Z,9.73
2022-08-19T09:24:31.270Z,9.18
2022-08-19T09:26:47.386Z,8.20
2022-08-19T09:28:53.710Z,8.10
2022-08-19T09:30:55.941Z,8.07
2022-08-19T09:32:57.642Z,8.88
2022-08-19T09:35:01.411Z,8.65
2022-08-19T09:37:10.431Z,8.48
2022-08-19T09:39:16.051Z,8.45
2022-08-19T09:41:20.948Z,8.13
2022-08-19T09:43:31.108Z,7.43
2022-08-19T09:45:36.004Z,7.10
2022-08-19T09:47:47.208Z,7.47
2022-08-19T09:49:49.936Z,7.38
2022-08-19T09:51:57.021Z,7.43
2022-08-19T09:54:04.876Z,7.70
2022-08-19T09:56:07.734Z,8.10
2022-08-19T09:58:11.693Z,7.30
2022-08-19T10:00:13.679Z,7.35
2022-08-19T10:02:15.317Z,7.95
2022-08-19T10:04:25.359Z,7.55
2022-08-19T10:06:44.061Z,6.80
2022-08-19T10:08:50.239Z,6.57
2022-08-19T10:10:53.580Z,7.20
2022-08-19T10:12:56.996Z,7.15
2022-08-19T10:14:58.646Z,6.95
2022-08-19T10:17:01.438Z,6.55
2022-08-19T10:19:25.334Z,7.25
2022-08-19T10:21:33.337Z,6.82
2022-08-19T10:23:38.073Z,12.63
2022-08-19T10:25:39.763Z,21.17
2022-08-19T10:27:47.922Z,7.53
2022-08-19T10:29:53.691Z,7.13
2022-08-19T10:32:02.138Z,7.13
2022-08-19T10:34:04.962Z,6.72
2022-08-19T10:36:18.892Z,6.80
2022-08-19T10:38:22.767Z,7.25
2022-08-19T10:40:33.331Z,8.10
2022-08-19T10:42:36.439Z,7.30
2022-08-19T10:44:38.169Z,7.47
2022-08-19T10:46:46.041Z,7.90
2022-08-19T10:48:50.915Z,7.68
2022-08-19T10:51:11.546Z,7.22
2022-08-19T10:53:30.096Z,7.82
2022-08-19T10:55:50.683Z,7.65
2022-08-19T10:58:04.179Z,7.68
2022-08-19T11:00:06.719Z,7.68
2022-08-19T11:03:25.885Z,8.77
2022-08-19T11:05:27.548Z,7.75
2022-08-19T11:07:29.175Z,9.85
2022-08-19T11:09:34.153Z,7.80
2022-08-19T11:11:41.208Z,9.20
2022-08-19T11:13:43.788Z,8.85
2022-08-19T11:15:48.510Z,8.23
2022-08-19T11:17:50.234Z,8.13
2022-08-19T11:19:52.059Z,8.50
2022-08-19T11:21:54.823Z,8.13
2022-08-19T11:24:02.011Z,8.00
2022-08-19T11:26:03.784Z,8.23
2022-08-19T11:28:06.134Z,9.10
2022-08-19T11:30:08.744Z,8.18
2022-08-19T11:32:15.147Z,8.73
2022-08-19T11:34:19.998Z,9.05
2022-08-19T11:36:22.583Z,7.88
2022-08-19T11:38:24.208Z,7.88
2022-08-19T11:40:25.873Z,7.97
2022-08-19T11:42:46.453Z,7.63
2022-08-19T11:44:48.288Z,6.82
2022-08-19T11:46:50.049Z,6.80
2022-08-19T11:48:51.790Z,6.22
2022-08-19T11:50:57.067Z,6.75
2022-08-19T11:52:58.752Z,6.38
2022-08-19T11:55:00.380Z,6.45
2022-08-19T11:57:04.297Z,6.30
2022-08-19T11:59:06.177Z,6.10
2022-08-19T12:01:09.788Z,5.85
2022-08-19T12:03:12.496Z,6.43
2022-08-19T12:05:14.245Z,5.72
2022-08-19T12:07:16.572Z,5.03
2022-08-19T12:09:18.702Z,4.72
2022-08-19T12:11:20.741Z,4.90
2022-08-19T12:13:22.361Z,4.38
2022-08-19T12:15:24.135Z,3.80
2022-08-19T12:17:27.857Z,4.28
2022-08-19T12:19:29.483Z,4.63
2022-08-19T12:21:33.038Z,4.18
2022-08-19T12:23:34.894Z,4.28
2022-08-19T12:25:37.576Z,4.30
2022-08-19T12:27:41.666Z,4.25
2022-08-19T12:29:44.467Z,4.47
2022-08-19T12:31:46.191Z,3.92
2022-08-19T12:33:48.598Z,3.90
2022-08-19T12:35:50.391Z,3.33
2022-08-19T12:37:56.951Z,3.25
2022-08-19T12:39:59.432Z,3.30
2022-08-19T12:42:01.119Z,3.70
2022-08-19T12:44:02.892Z,3.55
2022-08-19T12:46:07.908Z,3.88
2022-08-19T12:48:33.173Z,3.70
2022-08-19T12:50:34.975Z,3.58
2022-08-19T12:52:38.215Z,3.58
2022-08-19T12:54:39.995Z,3.58
2022-08-19T12:56:43.714Z,3.45
2022-08-19T12:58:48.846Z,3.80
2022-08-19T13:00:52.843Z,3.60
2022-08-19T13:02:54.868Z,4.13
2022-08-19T13:04:56.629Z,3.95
2022-08-19T13:06:59.438Z,3.75
2022-08-19T13:09:01.108Z,3.50
2022-08-19T13:11:14.239Z,3.65
2022-08-19T13:13:15.900Z,3.55
2022-08-19T13:15:23.961Z,3.60
2022-08-19T13:17:26.200Z,3.67
2022-08-19T13:19:28.026Z,4.32
2022-08-19T13:21:30.978Z,4.00
2022-08-19T13:23:33.806Z,4.07
2022-08-19T13:25:36.709Z,4.55
2022-08-19T13:27:39.244Z,4.40
2022-08-19T13:30:00.784Z,4.22
2022-08-19T13:32:21.249Z,4.55
2022-08-19T13:34:33.938Z,4.57
2022-08-19T13:36:36.608Z,4.03
2022-08-19T13:38:38.983Z,4.38
2022-08-19T13:40:41.863Z,5.03
2022-08-19T13:42:47.262Z,4.22
2022-08-19T13:44:49.412Z,4.18
2022-08-19T13:46:54.140Z,3.80
2022-08-19T13:48:56.206Z,3.90
2022-08-19T13:50:57.899Z,4.47
2022-08-19T13:53:00.714Z,4.05
2022-08-19T13:55:02.545Z,4.28
2022-08-19T13:57:04.649Z,4.05
2022-08-19T13:59:06.320Z,4.20
2022-08-19T14:01:09.246Z,4.22
2022-08-19T14:03:11.524Z,4.45
2022-08-19T14:05:15.724Z,4.63
2022-08-19T14:07:17.346Z,4.70
2022-08-19T14:09:19.012Z,5.18
2022-08-19T14:11:20.831Z,4.63
2022-08-19T14:13:24.057Z,4.53
2022-08-19T14:15:26.940Z,4.60
2022-08-19T14:17:29.811Z,5.18
2022-08-19T14:19:31.459Z,4.97
2022-08-19T14:21:36.547Z,4.22
2022-08-19T14:23:41.409Z,4.60
2022-08-19T14:25:43.698Z,5.00
2022-08-19T14:27:46.051Z,4.85
2022-08-19T14:29:47.676Z,4.63
2022-08-19T14:31:49.446Z,4.35
2022-08-19T14:33:51.762Z,4.68
2022-08-19T14:35:53.413Z,4.72
2022-08-19T14:38:03.802Z,4.30
2022-08-19T14:40:06.103Z,4.57
2022-08-19T14:42:11.390Z,4.13
2022-08-19T14:44:16.138Z,4.10
2022-08-19T14:46:23.210Z,3.88
2022-08-19T14:48:28.981Z,3.80
2022-08-19T14:50:31.052Z,3.65
2022-08-19T14:52:34.547Z,3.58
2022-08-19T14:54:36.366Z,3.42
2022-08-19T14:56:38.067Z,3.70
2022-08-19T14:58:44.114Z,3.90
2022-08-19T15:00:45.832Z,3.50
2022-08-19T15:02:47.496Z,3.40
2022-08-19T15:04:58.329Z,3.60
2022-08-19T15:07:00.953Z,3.45
2022-08-19T15:09:04.518Z,3.38
2022-08-19T15:11:15.784Z,3.28
2022-08-19T15:13:17.935Z,3.00
2022-08-19T15:15:20.546Z,3.40
2022-08-19T15:17:24.001Z,3.13
2022-08-19T15:19:31.049Z,2.97
2022-08-19T15:21:33.351Z,3.00
2022-08-19T15:23:35.189Z,3.05
2022-08-19T15:25:36.860Z,2.85
2022-08-19T15:27:39.970Z,3.40
2022-08-19T15:29:41.694Z,3.17
2022-08-19T15:31:43.619Z,3.45
2022-08-19T15:33:45.309Z,4.30
2022-08-19T15:35:48.477Z,3.38
2022-08-19T15:37:55.091Z,4.07
2022-08-19T15:39:56.825Z,3.90
2022-08-19T15:42:00.697Z,4.55
2022-08-19T15:44:09.668Z,3.95
2022-08-19T15:46:11.460Z,4.90
2022-08-19T15:48:18.761Z,4.30
2022-08-19T15:50:21.449Z,5.65
2022-08-19T15:52:23.073Z,6.07
2022-08-19T15:54:24.685Z,6.00
2022-08-19T15:56:27.544Z,6.00
2022-08-19T15:58:48.756Z,6.53
2022-08-19T16:01:12.526Z,6.43
2022-08-19T16:03:33.863Z,6.50
2022-08-19T16:06:01.225Z,6.70
2022-08-19T16:08:03.127Z,6.70
2022-08-19T16:10:25.900Z,6.35
2022-08-19T16:12:30.429Z,6.82
2022-08-19T16:14:35.298Z,7.22
2022-08-19T16:16:38.408Z,6.70
2022-08-19T16:18:40.015Z,6.30
2022-08-19T16:20:41.803Z,6.18
2022-08-19T16:22:43.392Z,6.93
2022-08-19T16:24:45.295Z,6.82
2022-08-19T16:26:48.330Z,6.40
2022-08-19T16:28:50.165Z,6.32
2022-08-19T16:30:52.868Z,6.50
2022-08-19T16:32:54.774Z,6.30
2022-08-19T16:34:56.551Z,6.30
2022-08-19T16:36:58.178Z,6.30
2022-08-19T16:39:00.880Z,6.70
2022-08-19T16:41:02.688Z,6.45
2022-08-19T16:43:04.930Z,6.13
2022-08-19T16:45:08.881Z,6.60
2022-08-19T16:47:12.523Z,6.30
2022-08-19T16:49:15.100Z,5.90
2022-08-19T16:51:17.054Z,6.20
2022-08-19T16:53:21.981Z,5.88
2022-08-19T16:55:23.786Z,6.40
2022-08-19T16:57:25.660Z,5.55
2022-08-19T16:59:27.467Z,5.80
2022-08-19T17:01:29.614Z,5.45
2022-08-19T17:03:36.881Z,5.18
2022-08-19T17:05:49.379Z,5.07
2022-08-19T17:07:52.822Z,5.30
2022-08-19T17:09:55.254Z,4.95
2022-08-19T17:11:56.971Z,4.97
2022-08-19T17:13:58.999Z,4.68
2022-08-19T17:16:00.708Z,4.65
2022-08-19T17:18:04.592Z,5.57
2022-08-19T17:20:08.021Z,5.13
2022-08-19T17:22:11.457Z,4.40
2022-08-19T17:24:13.110Z,4.40
2022-08-19T17:26:18.015Z,4.50
2022-08-19T17:28:25.766Z,4.57
2022-08-19T17:30:27.512Z,4.40
2022-08-19T17:32:29.155Z,4.32
2022-08-19T17:34:30.796Z,4.78
2022-08-19T17:36:34.114Z,4.40
2022-08-19T17:38:37.189Z,4.25
2022-08-19T17:40:41.955Z,4.63
2022-08-19T17:42:45.268Z,4.07
2022-08-19T17:44:50.723Z,4.57
2022-08-19T17:46:53.662Z,4.18
2022-08-19T17:48:57.092Z,4.20
2022-08-19T17:51:00.471Z,4.30
2022-08-19T17:53:03.670Z,3.53
2022-08-19T17:55:07.965Z,3.50
2022-08-19T17:57:09.777Z,3.42
2022-08-19T17:59:13.900Z,3.80
2022-08-19T18:01:17.020Z,3.92
2022-08-19T18:03:21.824Z,3.58
2022-08-19T18:05:32.015Z,3.20
2022-08-19T18:07:34.441Z,3.30
2022-08-19T18:09:42.210Z,3.42
2022-08-19T18:11:44.896Z,3.40
2022-08-19T18:13:54.401Z,3.50
2022-08-19T18:15:57.979Z,3.70
2022-08-19T18:17:59.616Z,3.17
2022-08-19T18:20:01.298Z,3.63
2022-08-19T18:22:03.797Z,3.17
2022-08-19T18:24:06.051Z,3.10
2022-08-19T18:26:08.130Z,3.35
2022-08-19T18:28:09.991Z,3.22
2022-08-19T18:30:13.510Z,3.53
2022-08-19T18:32:17.468Z,3.22
2022-08-19T18:34:25.233Z,3.03
2022-08-19T18:36:52.487Z,3.00
2022-08-19T18:39:09.101Z,2.67
2022-08-19T18:41:29.222Z,2.70
2022-08-19T18:43:49.528Z,2.85
2022-08-19T18:46:10.360Z,3.10
2022-08-19T18:48:30.690Z,2.92
2022-08-19T18:50:32.944Z,2.70
2022-08-19T18:52:36.121Z,3.13
2022-08-19T18:54:37.962Z,3.25
2022-08-19T18:56:43.687Z,2.97
2022-08-19T18:58:46.426Z,3.10
2022-08-19T19:00:48.440Z,2.88
2022-08-19T19:02:50.206Z,2.85
2022-08-19T19:04:51.883Z,3.25
2022-08-19T19:06:54.374Z,2.70
2022-08-19T19:08:57.741Z,3.22
2022-08-19T19:11:05.172Z,2.85
2022-08-19T19:13:06.775Z,3.03
2022-08-19T19:15:08.827Z,2.85
2022-08-19T19:17:13.901Z,2.60
2022-08-19T19:19:15.968Z,2.72
2022-08-19T19:21:23.664Z,2.67
2022-08-19T19:23:25.302Z,2.70
2022-08-19T19:25:27.605Z,2.70
2022-08-19T19:27:50.181Z,2.60
2022-08-19T19:29:52.862Z,2.70
2022-08-19T19:31:56.109Z,2.45
2022-08-19T19:33:57.699Z,2.95
2022-08-19T19:35:59.704Z,2.42
2022-08-19T19:38:01.460Z,2.40
2022-08-19T19:40:04.068Z,2.65
2022-08-19T19:42:19.723Z,2.70
2022-08-19T19:44:30.585Z,2.50
2022-08-19T19:46:33.607Z,2.58
2022-08-19T19:48:37.011Z,3.00
2022-08-19T19:50:38.750Z,2.45
2022-08-19T19:52:41.383Z,2.33
2022-08-19T19:54:47.810Z,2.40
2022-08-19T19:56:50.427Z,2.22
2022-08-19T19:58:55.409Z,2.55
2022-08-19T20:00:58.918Z,2.17
2022-08-19T20:03:00.603Z,2.30
2022-08-19T20:05:02.395Z,2.30
2022-08-19T20:07:04.243Z,2.28
2022-08-19T20:09:10.791Z,2.28
2022-08-19T20:11:16.749Z,1.98
2022-08-19T20:13:19.721Z,2.33
2022-08-19T20:15:22.722Z,1.55
2022-08-19T20:17:24.306Z,1.70
2022-08-19T20:19:28.762Z,2.00
2022-08-19T20:21:33.682Z,1.65
2022-08-19T20:23:35.629Z,1.65
2022-08-19T20:25:38.685Z,1.75
2022-08-19T20:27:41.191Z,1.90
2022-08-19T20:29:44.585Z,1.83
2022-08-19T20:31:59.086Z,1.50
2022-08-19T20:34:01.852Z,1.30
2022-08-19T20:36:04.886Z,2.03
2022-08-19T20:38:08.642Z,2.13
2022-08-19T20:40:11.257Z,1.42
2022-08-19T20:42:13.495Z,1.33
2022-08-19T20:44:15.621Z,1.42
2022-08-19T20:46:17.853Z,1.40
2022-08-19T20:48:19.501Z,1.60
2022-08-19T20:50:21.552Z,1.60
2022-08-19T20:52:23.147Z,1.48
2022-08-19T20:54:25.135Z,1.30
2022-08-19T20:56:28.129Z,1.30
2022-08-19T20:58:30.717Z,1.48
2022-08-19T21:00:32.789Z,1.42
2022-08-19T21:02:34.464Z,1.20
2022-08-19T21:04:36.019Z,1.40
2022-08-19T21:06:38.608Z,1.15
2022-08-19T21:08:44.058Z,1.10
2022-08-19T21:10:49.340Z,1.20
2022-08-19T21:12:52.818Z,1.20
2022-08-19T21:14:54.417Z,1.30
2022-08-19T21:16:55.997Z,1.20
2022-08-19T21:18:57.580Z,1.40
2022-08-19T21:20:59.322Z,1.25
2022-08-19T21:23:13.748Z,1.50
2022-08-19T21:25:16.998Z,1.25
2022-08-19T21:27:18.593Z,1.23
2022-08-19T21:29:20.225Z,1.10
2022-08-19T21:31:22.054Z,1.20
2022-08-19T21:33:24.861Z,1.40
2022-08-19T21:35:33.502Z,1.40
2022-08-19T21:37:35.565Z,1.20
2022-08-19T21:39:37.200Z,1.20
2022-08-19T21:41:43.085Z,1.67
2022-08-19T21:43:45.243Z,1.27
2022-08-19T21:45:47.643Z,1.20
2022-08-19T21:47:50.733Z,1.20
2022-08-19T21:49:52.405Z,1.20
2022-08-19T21:51:53.980Z,1.20
2022-08-19T21:53:55.713Z,1.30
2022-08-19T21:55:57.639Z,1.10
2022-08-19T21:58:00.133Z,1.42
2022-08-19T22:00:02.339Z,1.17
2022-08-19T22:02:19.133Z,1.17
2022-08-19T22:04:21.548Z,1.17
2022-08-19T22:06:25.705Z,1.20
2022-08-19T22:08:27.528Z,1.10
2022-08-19T22:10:33.234Z,1.50
2022-08-19T22:12:37.420Z,1.00
2022-08-19T22:14:39.744Z,1.13
2022-08-19T22:16:41.596Z,1.30
2022-08-19T22:18:44.392Z,1.30
2022-08-19T22:20:46.891Z,1.27
2022-08-19T22:22:53.297Z,1.27
2022-08-19T22:25:11.791Z,1.35
2022-08-19T22:27:13.403Z,1.20
2022-08-19T22:29:17.226Z,1.10
2022-08-19T22:31:18.935Z,1.23
2022-08-19T22:33:22.737Z,1.30
2022-08-19T22:35:25.465Z,1.00
2022-08-19T22:37:29.497Z,1.13
2022-08-19T22:39:31.096Z,1.30
2022-08-19T22:41:33.770Z,1.13
2022-08-19T22:43:37.429Z,1.20
2022-08-19T22:45:39.295Z,1.20
2022-08-19T22:47:42.147Z,1.30
2022-08-19T22:49:44.731Z,1.50
2022-08-19T22:52:05.067Z,1.10
2022-08-19T22:54:06.675Z,1.20
2022-08-19T22:56:14.972Z,1.17
2022-08-19T22:58:17.482Z,1.40
2022-08-19T23:00:30.102Z,1.13
2022-08-19T23:02:38.358Z,0.95
2022-08-19T23:04:39.973Z,1.13
2022-08-19T23:06:42.352Z,1.27
2022-08-19T23:08:44.165Z,1.27
2022-08-19T23:10:45.784Z,1.27
2022-08-19T23:12:48.939Z,1.20
2022-08-19T23:14:50.531Z,1.20
2022-08-19T23:16:54.162Z,1.58
2022-08-19T23:18:58.611Z,1.25
2022-08-19T23:21:01.214Z,1.17
2022-08-19T23:23:06.511Z,1.38
2022-08-19T23:25:12.263Z,1.30
2022-08-19T23:27:45.757Z,1.00
2022-08-19T23:30:05.705Z,1.35
2022-08-19T23:32:07.272Z,1.38
2022-08-19T23:34:09.094Z,1.60
2022-08-19T23:36:16.827Z,1.20
2022-08-19T23:38:19.478Z,1.30
2022-08-19T23:40:21.957Z,1.38
2022-08-19T23:42:25.624Z,1.58
2022-08-19T23:44:28.148Z,1.40
2022-08-19T23:46:42.189Z,1.42
2022-08-19T23:48:57.113Z,1.40
2022-08-19T23:51:01.142Z,1.70
2022-08-19T23:53:03.605Z,1.50
2022-08-19T23:55:07.473Z,1.60
2022-08-19T23:57:13.513Z,1.50
2022-08-19T23:59:16.313Z,1.50
